sensor_id;sensor_type;location;lat;lon;timestamp;temperature;humidity
39677;DHT22;27789;50.840;4.386;2022-08-19T00:01:34;23.00;99.60
39677;DHT22;27789;50.840;4.386;2022-08-19T00:04:01;23.00;99.70
39677;DHT22;27789;50.840;4.386;2022-08-19T00:06:28;22.90;99.80
39677;DHT22;27789;50.840;4.386;2022-08-19T00:08:54;22.90;99.90
39677;DHT22;27789;50.840;4.386;2022-08-19T00:11:20;22.80;99.90
39677;DHT22;27789;50.840;4.386;2022-08-19T00:13:46;22.80;99.90
39677;DHT22;27789;50.840;4.386;2022-08-19T00:16:14;22.80;99.90
39677;DHT22;27789;50.840;4.386;2022-08-19T00:18:39;22.80;99.90
39677;DHT22;27789;50.840;4.386;2022-08-19T00:21:05;22.80;99.90
39677;DHT22;27789;50.840;4.386;2022-08-19T00:23:32;22.80;99.90
39677;DHT22;27789;50.840;4.386;2022-08-19T00:26:00;22.80;99.90
39677;DHT22;27789;50.840;4.386;2022-08-19T00:28:25;22.80;99.90
39677;DHT22;27789;50.840;4.386;2022-08-19T00:30:51;22.80;99.90
39677;DHT22;27789;50.840;4.386;2022-08-19T00:33:18;22.80;99.90
39677;DHT22;27789;50.840;4.386;2022-08-19T00:35:44;22.80;99.90
39677;DHT22;27789;50.840;4.386;2022-08-19T00:38:09;22.70;99.90
39677;DHT22;27789;50.840;4.386;2022-08-19T00:40:35;22.80;99.90
39677;DHT22;27789;50.840;4.386;2022-08-19T00:43:00;22.70;99.90
39677;DHT22;27789;50.840;4.386;2022-08-19T00:45:26;22.70;99.90
39677;DHT22;27789;50.840;4.386;2022-08-19T00:47:53;22.70;99.90
39677;DHT22;27789;50.840;4.386;2022-08-19T00:50:19;22.70;99.90
39677;DHT22;27789;50.840;4.386;2022-08-19T00:52:46;22.70;99.90
39677;DHT22;27789;50.840;4.386;2022-08-19T00:55:16;22.60;99.90
39677;DHT22;27789;50.840;4.386;2022-08-19T00:57:46;22.50;99.90
39677;DHT22;27789;50.840;4.386;2022-08-19T01:00:14;22.50;99.90
39677;DHT22;27789;50.840;4.386;2022-08-19T01:02:41;22.50;99.90
39677;DHT22;27789;50.840;4.386;2022-08-19T01:05:12;22.40;99.90
39677;DHT22;27789;50.840;4.386;2022-08-19T01:07:38;22.40;99.90
39677;DHT22;27789;50.840;4.386;2022-08-19T01:10:05;22.40;99.90
39677;DHT22;27789;50.840;4.386;2022-08-19T01:12:31;22.30;99.90
39677;DHT22;27789;50.840;4.386;2022-08-19T01:14:57;22.30;99.90
39677;DHT22;27789;50.840;4.386;2022-08-19T01:17:23;22.20;99.90
39677;DHT22;27789;50.840;4.386;2022-08-19T01:19:48;22.20;99.90
39677;DHT22;27789;50.840;4.386;2022-08-19T01:24:51;22.20;99.90
39677;DHT22;27789;50.840;4.386;2022-08-19T01:27:17;22.20;99.90
39677;DHT22;27789;50.840;4.386;2022-08-19T01:29:43;22.10;99.90
39677;DHT22;27789;50.840;4.386;2022-08-19T01:32:11;22.10;99.90
39677;DHT22;27789;50.840;4.386;2022-08-19T01:34:37;22.10;99.90
39677;DHT22;27789;50.840;4.386;2022-08-19T01:37:07;22.00;99.90
39677;DHT22;27789;50.840;4.386;2022-08-19T01:39:33;22.00;99.90
39677;DHT22;27789;50.840;4.386;2022-08-19T01:41:58;22.00;99.90
39677;DHT22;27789;50.840;4.386;2022-08-19T01:44:28;22.00;99.90
39677;DHT22;27789;50.840;4.386;2022-08-19T01:46:53;21.90;99.90
39677;DHT22;27789;50.840;4.386;2022-08-19T01:49:20;21.80;99.90
39677;DHT22;27789;50.840;4.386;2022-08-19T01:51:46;21.80;99.90
39677;DHT22;27789;50.840;4.386;2022-08-19T01:54:13;21.80;99.90
39677;DHT22;27789;50.840;4.386;2022-08-19T01:56:38;21.70;99.90
39677;DHT22;27789;50.840;4.386;2022-08-19T01:59:05;21.70;99.90
39677;DHT22;27789;50.840;4.386;2022-08-19T02:01:33;21.60;99.90
39677;DHT22;27789;50.840;4.386;2022-08-19T02:03:59;21.60;99.90
39677;DHT22;27789;50.840;4.386;2022-08-19T02:06:26;21.60;99.90
39677;DHT22;27789;50.840;4.386;2022-08-19T02:08:51;21.60;99.90
39677;DHT22;27789;50.840;4.386;2022-08-19T02:11:24;21.60;99.90
39677;DHT22;27789;50.840;4.386;2022-08-19T02:13:52;21.40;99.90
39677;DHT22;27789;50.840;4.386;2022-08-19T02:16:17;21.30;99.90
39677;DHT22;27789;50.840;4.386;2022-08-19T02:18:43;21.30;99.90
39677;DHT22;27789;50.840;4.386;2022-08-19T02:21:09;21.30;99.90
39677;DHT22;27789;50.840;4.386;2022-08-19T02:23:34;21.30;99.90
39677;DHT22;27789;50.840;4.386;2022-08-19T02:26:00;21.30;99.90
39677;DHT22;27789;50.840;4.386;2022-08-19T02:28:25;21.30;99.90
39677;DHT22;27789;50.840;4.386;2022-08-19T02:30:51;21.30;99.90
39677;DHT22;27789;50.840;4.386;2022-08-19T02:33:16;21.20;99.90
39677;DHT22;27789;50.840;4.386;2022-08-19T02:35:43;21.20;99.90
39677;DHT22;27789;50.840;4.386;2022-08-19T02:38:08;21.20;99.90
39677;DHT22;27789;50.840;4.386;2022-08-19T02:40:49;21.20;99.90
39677;DHT22;27789;50.840;4.386;2022-08-19T02:43:17;21.00;99.90
39677;DHT22;27789;50.840;4.386;2022-08-19T02:45:42;21.00;99.90
39677;DHT22;27789;50.840;4.386;2022-08-19T02:48:08;20.90;99.90
39677;DHT22;27789;50.840;4.386;2022-08-19T02:50:37;20.90;99.90
39677;DHT22;27789;50.840;4.386;2022-08-19T02:53:02;20.90;99.90
39677;DHT22;27789;50.840;4.386;2022-08-19T02:55:28;20.90;99.90
39677;DHT22;27789;50.840;4.386;2022-08-19T02:57:53;20.80;99.90
39677;DHT22;27789;50.840;4.386;2022-08-19T03:00:19;20.80;99.90
39677;DHT22;27789;50.840;4.386;2022-08-19T03:02:45;20.80;99.90
39677;DHT22;27789;50.840;4.386;2022-08-19T03:05:12;20.80;99.90
39677;DHT22;27789;50.840;4.386;2022-08-19T03:07:37;20.80;99.90
39677;DHT22;27789;50.840;4.386;2022-08-19T03:10:03;20.80;99.90
39677;DHT22;27789;50.840;4.386;2022-08-19T03:12:29;20.70;99.90
39677;DHT22;27789;50.840;4.386;2022-08-19T03:14:54;20.70;99.90
39677;DHT22;27789;50.840;4.386;2022-08-19T03:17:20;20.60;99.90
39677;DHT22;27789;50.840;4.386;2022-08-19T03:19:45;20.60;99.90
39677;DHT22;27789;50.840;4.386;2022-08-19T03:22:11;20.70;99.90
39677;DHT22;27789;50.840;4.386;2022-08-19T03:24:36;20.70;99.90
39677;DHT22;27789;50.840;4.386;2022-08-19T03:27:02;20.60;99.90
39677;DHT22;27789;50.840;4.386;2022-08-19T03:29:30;20.60;99.90
39677;DHT22;27789;50.840;4.386;2022-08-19T03:32:00;20.50;99.90
39677;DHT22;27789;50.840;4.386;2022-08-19T03:34:27;20.60;99.90
39677;DHT22;27789;50.840;4.386;2022-08-19T03:36:53;20.60;99.90
39677;DHT22;27789;50.840;4.386;2022-08-19T03:39:19;20.50;99.90
39677;DHT22;27789;50.840;4.386;2022-08-19T03:41:46;20.40;99.90
39677;DHT22;27789;50.840;4.386;2022-08-19T03:44:16;20.50;99.90
39677;DHT22;27789;50.840;4.386;2022-08-19T03:46:43;20.40;99.90
39677;DHT22;27789;50.840;4.386;2022-08-19T03:49:08;20.30;99.90
39677;DHT22;27789;50.840;4.386;2022-08-19T03:51:35;20.30;99.90
39677;DHT22;27789;50.840;4.386;2022-08-19T03:54:02;20.30;99.90
39677;DHT22;27789;50.840;4.386;2022-08-19T03:56:28;20.20;99.90
39677;DHT22;27789;50.840;4.386;2022-08-19T03:58:54;20.20;99.90
39677;DHT22;27789;50.840;4.386;2022-08-19T04:01:21;20.30;99.90
39677;DHT22;27789;50.840;4.386;2022-08-19T04:03:47;20.20;99.90
39677;DHT22;27789;50.840;4.386;2022-08-19T04:06:23;20.10;99.90
39677;DHT22;27789;50.840;4.386;2022-08-19T04:08:50;20.10;99.90
39677;DHT22;27789;50.840;4.386;2022-08-19T04:11:20;20.10;99.90
39677;DHT22;27789;50.840;4.386;2022-08-19T04:13:47;20.10;99.90
39677;DHT22;27789;50.840;4.386;2022-08-19T04:16:12;20.00;99.90
39677;DHT22;27789;50.840;4.386;2022-08-19T04:18:38;20.00;99.90
39677;DHT22;27789;50.840;4.386;2022-08-19T04:21:04;19.90;99.90
39677;DHT22;27789;50.840;4.386;2022-08-19T04:23:30;19.90;99.90
39677;DHT22;27789;50.840;4.386;2022-08-19T04:25:56;19.80;99.90
39677;DHT22;27789;50.840;4.386;2022-08-19T04:28:22;19.70;99.90
39677;DHT22;27789;50.840;4.386;2022-08-19T04:30:48;19.60;99.90
39677;DHT22;27789;50.840;4.386;2022-08-19T04:33:15;19.60;99.90
39677;DHT22;27789;50.840;4.386;2022-08-19T04:35:42;19.70;99.90
39677;DHT22;27789;50.840;4.386;2022-08-19T04:38:08;19.60;99.90
39677;DHT22;27789;50.840;4.386;2022-08-19T04:40:34;19.70;99.90
39677;DHT22;27789;50.840;4.386;2022-08-19T04:43:11;19.70;99.90
39677;DHT22;27789;50.840;4.386;2022-08-19T04:45:39;19.60;99.90
39677;DHT22;27789;50.840;4.386;2022-08-19T04:48:05;19.60;99.90
39677;DHT22;27789;50.840;4.386;2022-08-19T04:50:31;19.70;99.90
39677;DHT22;27789;50.840;4.386;2022-08-19T04:52:56;19.70;99.90
39677;DHT22;27789;50.840;4.386;2022-08-19T04:55:22;19.70;99.90
39677;DHT22;27789;50.840;4.386;2022-08-19T04:57:48;19.60;99.90
39677;DHT22;27789;50.840;4.386;2022-08-19T05:00:14;19.60;99.90
39677;DHT22;27789;50.840;4.386;2022-08-19T05:02:39;19.60;99.90
39677;DHT22;27789;50.840;4.386;2022-08-19T05:05:05;19.60;99.90
39677;DHT22;27789;50.840;4.386;2022-08-19T05:07:31;19.60;99.90
39677;DHT22;27789;50.840;4.386;2022-08-19T05:09:57;19.60;99.90
39677;DHT22;27789;50.840;4.386;2022-08-19T05:12:22;19.60;99.90
39677;DHT22;27789;50.840;4.386;2022-08-19T05:14:48;19.70;99.90
39677;DHT22;27789;50.840;4.386;2022-08-19T05:17:14;19.70;99.90
39677;DHT22;27789;50.840;4.386;2022-08-19T05:19:40;19.70;99.90
39677;DHT22;27789;50.840;4.386;2022-08-19T05:22:16;19.70;99.90
39677;DHT22;27789;50.840;4.386;2022-08-19T05:24:53;19.70;99.90
39677;DHT22;27789;50.840;4.386;2022-08-19T05:27:18;19.70;99.90
39677;DHT22;27789;50.840;4.386;2022-08-19T05:29:44;19.60;99.90
39677;DHT22;27789;50.840;4.386;2022-08-19T05:32:09;19.60;99.90
39677;DHT22;27789;50.840;4.386;2022-08-19T05:34:36;19.60;99.90
39677;DHT22;27789;50.840;4.386;2022-08-19T05:37:03;19.60;99.90
39677;DHT22;27789;50.840;4.386;2022-08-19T05:39:30;19.60;99.90
39677;DHT22;27789;50.840;4.386;2022-08-19T05:41:57;19.70;99.90
39677;DHT22;27789;50.840;4.386;2022-08-19T05:44:24;19.70;99.90
39677;DHT22;27789;50.840;4.386;2022-08-19T05:46:50;19.80;99.90
39677;DHT22;27789;50.840;4.386;2022-08-19T05:49:18;19.80;99.90
39677;DHT22;27789;50.840;4.386;2022-08-19T05:51:44;19.90;99.90
39677;DHT22;27789;50.840;4.386;2022-08-19T05:54:09;19.80;99.90
39677;DHT22;27789;50.840;4.386;2022-08-19T05:56:39;19.90;99.90
39677;DHT22;27789;50.840;4.386;2022-08-19T05:59:05;20.00;99.90
39677;DHT22;27789;50.840;4.386;2022-08-19T06:01:36;20.00;99.90
39677;DHT22;27789;50.840;4.386;2022-08-19T06:04:02;20.00;99.90
39677;DHT22;27789;50.840;4.386;2022-08-19T06:06:28;20.00;99.90
39677;DHT22;27789;50.840;4.386;2022-08-19T06:08:54;20.00;99.90
39677;DHT22;27789;50.840;4.386;2022-08-19T06:11:20;20.10;99.90
39677;DHT22;27789;50.840;4.386;2022-08-19T06:13:47;20.10;99.90
39677;DHT22;27789;50.840;4.386;2022-08-19T06:16:17;20.10;99.90
39677;DHT22;27789;50.840;4.386;2022-08-19T06:18:51;20.10;99.90
39677;DHT22;27789;50.840;4.386;2022-08-19T06:21:27;20.20;99.90
39677;DHT22;27789;50.840;4.386;2022-08-19T06:23:53;20.20;99.90
39677;DHT22;27789;50.840;4.386;2022-08-19T06:26:20;20.30;99.90
39677;DHT22;27789;50.840;4.386;2022-08-19T06:28:46;20.40;99.90
39677;DHT22;27789;50.840;4.386;2022-08-19T06:31:16;20.60;99.90
39677;DHT22;27789;50.840;4.386;2022-08-19T06:33:42;20.60;99.90
39677;DHT22;27789;50.840;4.386;2022-08-19T06:36:08;20.60;99.90
39677;DHT22;27789;50.840;4.386;2022-08-19T06:38:40;20.60;99.90
39677;DHT22;27789;50.840;4.386;2022-08-19T06:41:06;20.60;99.90
39677;DHT22;27789;50.840;4.386;2022-08-19T06:43:31;20.70;99.90
39677;DHT22;27789;50.840;4.386;2022-08-19T06:45:57;20.80;99.90
39677;DHT22;27789;50.840;4.386;2022-08-19T06:48:24;20.80;99.90
39677;DHT22;27789;50.840;4.386;2022-08-19T06:50:49;20.90;99.90
39677;DHT22;27789;50.840;4.386;2022-08-19T06:53:16;21.10;99.90
39677;DHT22;27789;50.840;4.386;2022-08-19T06:55:44;21.10;99.90
39677;DHT22;27789;50.840;4.386;2022-08-19T06:58:10;21.20;99.90
39677;DHT22;27789;50.840;4.386;2022-08-19T07:00:36;21.20;99.90
39677;DHT22;27789;50.840;4.386;2022-08-19T07:03:02;21.20;99.90
39677;DHT22;27789;50.840;4.386;2022-08-19T07:05:27;21.20;99.90
39677;DHT22;27789;50.840;4.386;2022-08-19T07:07:53;21.20;99.90
39677;DHT22;27789;50.840;4.386;2022-08-19T07:10:18;21.20;99.90
39677;DHT22;27789;50.840;4.386;2022-08-19T07:12:44;21.20;99.90
39677;DHT22;27789;50.840;4.386;2022-08-19T07:15:10;21.20;99.90
39677;DHT22;27789;50.840;4.386;2022-08-19T07:17:36;21.20;99.90
39677;DHT22;27789;50.840;4.386;2022-08-19T07:20:05;21.20;99.90
39677;DHT22;27789;50.840;4.386;2022-08-19T07:22:32;21.30;99.90
39677;DHT22;27789;50.840;4.386;2022-08-19T07:24:59;21.30;99.90
39677;DHT22;27789;50.840;4.386;2022-08-19T07:27:24;21.40;99.90
39677;DHT22;27789;50.840;4.386;2022-08-19T07:29:50;21.40;99.90
39677;DHT22;27789;50.840;4.386;2022-08-19T07:32:15;21.40;99.90
39677;DHT22;27789;50.840;4.386;2022-08-19T07:34:41;21.40;99.90
39677;DHT22;27789;50.840;4.386;2022-08-19T07:37:06;21.50;99.90
39677;DHT22;27789;50.840;4.386;2022-08-19T07:39:33;21.50;99.90
39677;DHT22;27789;50.840;4.386;2022-08-19T07:42:00;21.60;99.90
39677;DHT22;27789;50.840;4.386;2022-08-19T07:44:26;21.70;99.90
39677;DHT22;27789;50.840;4.386;2022-08-19T07:46:52;21.70;99.90
39677;DHT22;27789;50.840;4.386;2022-08-19T07:49:19;21.60;99.90
39677;DHT22;27789;50.840;4.386;2022-08-19T07:51:49;21.70;99.90
39677;DHT22;27789;50.840;4.386;2022-08-19T07:54:15;21.80;99.90
39677;DHT22;27789;50.840;4.386;2022-08-19T07:56:40;21.80;99.90
39677;DHT22;27789;50.840;4.386;2022-08-19T07:59:06;21.90;99.90
39677;DHT22;27789;50.840;4.386;2022-08-19T08:01:33;22.00;99.90
39677;DHT22;27789;50.840;4.386;2022-08-19T08:03:58;22.00;99.90
39677;DHT22;27789;50.840;4.386;2022-08-19T08:06:34;22.00;99.90
39677;DHT22;27789;50.840;4.386;2022-08-19T08:09:10;22.10;99.90
39677;DHT22;27789;50.840;4.386;2022-08-19T08:11:50;22.20;99.90
39677;DHT22;27789;50.840;4.386;2022-08-19T08:14:17;22.30;99.90
39677;DHT22;27789;50.840;4.386;2022-08-19T08:16:43;22.30;99.90
39677;DHT22;27789;50.840;4.386;2022-08-19T08:19:11;22.30;99.90
39677;DHT22;27789;50.840;4.386;2022-08-19T08:21:36;22.40;99.90
39677;DHT22;27789;50.840;4.386;2022-08-19T08:24:02;22.60;99.90
39677;DHT22;27789;50.840;4.386;2022-08-19T08:26:27;22.60;99.90
39677;DHT22;27789;50.840;4.386;2022-08-19T08:28:53;22.60;99.90
39677;DHT22;27789;50.840;4.386;2022-08-19T08:31:19;22.80;99.90
39677;DHT22;27789;50.840;4.386;2022-08-19T08:33:45;22.90;99.90
39677;DHT22;27789;50.840;4.386;2022-08-19T08:36:11;22.80;99.90
39677;DHT22;27789;50.840;4.386;2022-08-19T08:38:39;22.80;99.90
39677;DHT22;27789;50.840;4.386;2022-08-19T08:41:10;22.80;99.90
39677;DHT22;27789;50.840;4.386;2022-08-19T08:43:39;22.90;99.90
39677;DHT22;27789;50.840;4.386;2022-08-19T08:48:43;22.90;99.90
39677;DHT22;27789;50.840;4.386;2022-08-19T08:51:13;22.80;99.90
39677;DHT22;27789;50.840;4.386;2022-08-19T08:53:40;22.80;99.90
39677;DHT22;27789;50.840;4.386;2022-08-19T08:56:08;22.80;99.90
39677;DHT22;27789;50.840;4.386;2022-08-19T09:01:13;22.90;99.90
39677;DHT22;27789;50.840;4.386;2022-08-19T09:03:40;22.90;99.90
39677;DHT22;27789;50.840;4.386;2022-08-19T09:11:19;22.70;99.90
39677;DHT22;27789;50.840;4.386;2022-08-19T09:16:23;22.80;99.90
39677;DHT22;27789;50.840;4.386;2022-08-19T09:18:55;22.90;99.90
39677;DHT22;27789;50.840;4.386;2022-08-19T09:21:23;22.90;99.90
39677;DHT22;27789;50.840;4.386;2022-08-19T09:23:48;23.00;99.90
39677;DHT22;27789;50.840;4.386;2022-08-19T09:26:16;22.90;99.90
39677;DHT22;27789;50.840;4.386;2022-08-19T09:28:42;23.10;99.90
39677;DHT22;27789;50.840;4.386;2022-08-19T09:31:10;23.10;99.90
39677;DHT22;27789;50.840;4.386;2022-08-19T09:33:35;23.10;99.90
39677;DHT22;27789;50.840;4.386;2022-08-19T09:36:05;23.10;99.90
39677;DHT22;27789;50.840;4.386;2022-08-19T09:38:32;23.10;99.90
39677;DHT22;27789;50.840;4.386;2022-08-19T09:41:01;23.10;99.90
39677;DHT22;27789;50.840;4.386;2022-08-19T09:43:27;23.20;99.90
39677;DHT22;27789;50.840;4.386;2022-08-19T09:45:53;23.20;99.90
39677;DHT22;27789;50.840;4.386;2022-08-19T09:48:18;23.30;99.90
39677;DHT22;27789;50.840;4.386;2022-08-19T09:50:46;23.30;99.90
39677;DHT22;27789;50.840;4.386;2022-08-19T09:53:12;23.30;99.90
39677;DHT22;27789;50.840;4.386;2022-08-19T09:55:41;23.30;99.90
39677;DHT22;27789;50.840;4.386;2022-08-19T09:58:06;23.30;99.90
39677;DHT22;27789;50.840;4.386;2022-08-19T10:00:32;23.30;99.90
39677;DHT22;27789;50.840;4.386;2022-08-19T10:02:57;23.30;99.90
39677;DHT22;27789;50.840;4.386;2022-08-19T10:05:23;23.40;99.90
39677;DHT22;27789;50.840;4.386;2022-08-19T10:07:59;23.30;99.90
39677;DHT22;27789;50.840;4.386;2022-08-19T10:10:26;23.50;99.90
39677;DHT22;27789;50.840;4.386;2022-08-19T10:12:52;23.50;99.90
39677;DHT22;27789;50.840;4.386;2022-08-19T10:15:17;23.60;99.90
39677;DHT22;27789;50.840;4.386;2022-08-19T10:17:46;23.60;99.90
39677;DHT22;27789;50.840;4.386;2022-08-19T10:20:12;23.70;99.90
39677;DHT22;27789;50.840;4.386;2022-08-19T10:22:37;23.70;99.90
39677;DHT22;27789;50.840;4.386;2022-08-19T10:25:03;23.70;99.90
39677;DHT22;27789;50.840;4.386;2022-08-19T10:27:29;23.70;99.90
39677;DHT22;27789;50.840;4.386;2022-08-19T10:29:56;23.60;99.90
39677;DHT22;27789;50.840;4.386;2022-08-19T10:32:21;23.50;99.90
39677;DHT22;27789;50.840;4.386;2022-08-19T10:34:47;23.60;99.90
39677;DHT22;27789;50.840;4.386;2022-08-19T10:37:14;23.60;99.90
39677;DHT22;27789;50.840;4.386;2022-08-19T10:39:40;23.60;99.90
39677;DHT22;27789;50.840;4.386;2022-08-19T10:42:06;23.70;99.90
39677;DHT22;27789;50.840;4.386;2022-08-19T10:44:32;23.60;99.90
39677;DHT22;27789;50.840;4.386;2022-08-19T10:46:59;23.60;99.90
39677;DHT22;27789;50.840;4.386;2022-08-19T10:49:25;23.50;99.90
39677;DHT22;27789;50.840;4.386;2022-08-19T10:51:50;23.50;99.90
39677;DHT22;27789;50.840;4.386;2022-08-19T10:54:26;23.50;99.90
39677;DHT22;27789;50.840;4.386;2022-08-19T10:57:12;23.60;99.90
39677;DHT22;27789;50.840;4.386;2022-08-19T10:59:37;23.50;99.90
39677;DHT22;27789;50.840;4.386;2022-08-19T11:02:04;23.50;99.90
39677;DHT22;27789;50.840;4.386;2022-08-19T11:04:30;23.60;99.90
39677;DHT22;27789;50.840;4.386;2022-08-19T11:06:57;23.60;99.90
39677;DHT22;27789;50.840;4.386;2022-08-19T11:09:24;23.60;99.90
39677;DHT22;27789;50.840;4.386;2022-08-19T11:11:50;23.50;99.90
39677;DHT22;27789;50.840;4.386;2022-08-19T11:14:16;23.50;99.90
39677;DHT22;27789;50.840;4.386;2022-08-19T11:16:44;23.50;99.90
39677;DHT22;27789;50.840;4.386;2022-08-19T11:19:11;23.60;99.90
39677;DHT22;27789;50.840;4.386;2022-08-19T11:21:38;23.60;99.90
39677;DHT22;27789;50.840;4.386;2022-08-19T11:24:08;23.70;99.90
39677;DHT22;27789;50.840;4.386;2022-08-19T11:26:34;23.80;99.90
39677;DHT22;27789;50.840;4.386;2022-08-19T11:29:00;23.80;99.90
39677;DHT22;27789;50.840;4.386;2022-08-19T11:31:27;23.60;99.90
39677;DHT22;27789;50.840;4.386;2022-08-19T11:33:53;23.60;99.90
39677;DHT22;27789;50.840;4.386;2022-08-19T11:36:19;23.40;99.90
39677;DHT22;27789;50.840;4.386;2022-08-19T11:38:47;23.40;99.90
39677;DHT22;27789;50.840;4.386;2022-08-19T11:41:14;23.40;99.90
39677;DHT22;27789;50.840;4.386;2022-08-19T11:43:39;23.40;99.90
39677;DHT22;27789;50.840;4.386;2022-08-19T11:46:05;23.50;99.90
39677;DHT22;27789;50.840;4.386;2022-08-19T11:48:32;23.50;99.90
39677;DHT22;27789;50.840;4.386;2022-08-19T11:50:57;23.70;99.90
39677;DHT22;27789;50.840;4.386;2022-08-19T11:53:23;23.70;99.90
39677;DHT22;27789;50.840;4.386;2022-08-19T11:55:49;23.80;99.90
39677;DHT22;27789;50.840;4.386;2022-08-19T11:58:15;23.80;99.90
39677;DHT22;27789;50.840;4.386;2022-08-19T12:00:41;23.90;99.90
39677;DHT22;27789;50.840;4.386;2022-08-19T12:03:07;24.10;99.90
39677;DHT22;27789;50.840;4.386;2022-08-19T12:05:33;24.40;99.90
39677;DHT22;27789;50.840;4.386;2022-08-19T12:07:58;25.00;99.90
39677;DHT22;27789;50.840;4.386;2022-08-19T12:10:24;25.40;99.90
39677;DHT22;27789;50.840;4.386;2022-08-19T12:12:50;25.80;99.90
39677;DHT22;27789;50.840;4.386;2022-08-19T12:15:15;25.90;99.90
39677;DHT22;27789;50.840;4.386;2022-08-19T12:17:41;26.10;99.90
39677;DHT22;27789;50.840;4.386;2022-08-19T12:20:07;26.20;99.50
39677;DHT22;27789;50.840;4.386;2022-08-19T12:22:34;26.10;99.70
39677;DHT22;27789;50.840;4.386;2022-08-19T12:25:00;26.00;99.50
39677;DHT22;27789;50.840;4.386;2022-08-19T12:27:26;26.00;99.70
39677;DHT22;27789;50.840;4.386;2022-08-19T12:29:51;25.90;99.80
39677;DHT22;27789;50.840;4.386;2022-08-19T12:32:17;25.70;99.90
39677;DHT22;27789;50.840;4.386;2022-08-19T12:34:42;25.70;99.90
39677;DHT22;27789;50.840;4.386;2022-08-19T12:37:08;25.70;99.80
39677;DHT22;27789;50.840;4.386;2022-08-19T12:39:34;25.60;99.90
39677;DHT22;27789;50.840;4.386;2022-08-19T12:41:59;25.40;99.90
39677;DHT22;27789;50.840;4.386;2022-08-19T12:44:25;25.40;99.90
39677;DHT22;27789;50.840;4.386;2022-08-19T12:46:50;25.60;99.90
39677;DHT22;27789;50.840;4.386;2022-08-19T12:49:16;25.70;99.80
39677;DHT22;27789;50.840;4.386;2022-08-19T12:51:41;25.90;99.40
39677;DHT22;27789;50.840;4.386;2022-08-19T12:54:07;26.20;99.50
39677;DHT22;27789;50.840;4.386;2022-08-19T12:56:33;26.50;98.40
39677;DHT22;27789;50.840;4.386;2022-08-19T12:59:02;26.40;98.40
39677;DHT22;27789;50.840;4.386;2022-08-19T13:01:28;26.30;98.50
39677;DHT22;27789;50.840;4.386;2022-08-19T13:03:55;26.40;98.50
39677;DHT22;27789;50.840;4.386;2022-08-19T13:06:20;27.50;97.20
39677;DHT22;27789;50.840;4.386;2022-08-19T13:08:46;28.40;96.10
39677;DHT22;27789;50.840;4.386;2022-08-19T13:11:13;28.70;95.30
39677;DHT22;27789;50.840;4.386;2022-08-19T13:13:39;28.60;94.80
39677;DHT22;27789;50.840;4.386;2022-08-19T13:16:06;28.30;94.80
39677;DHT22;27789;50.840;4.386;2022-08-19T13:18:32;28.00;95.10
39677;DHT22;27789;50.840;4.386;2022-08-19T13:21:01;27.90;95.30
39677;DHT22;27789;50.840;4.386;2022-08-19T13:23:28;27.80;95.20
39677;DHT22;27789;50.840;4.386;2022-08-19T13:26:00;27.70;95.20
39677;DHT22;27789;50.840;4.386;2022-08-19T13:28:27;27.40;95.70
39677;DHT22;27789;50.840;4.386;2022-08-19T13:31:14;27.10;95.90
39677;DHT22;27789;50.840;4.386;2022-08-19T13:33:50;26.90;96.50
39677;DHT22;27789;50.840;4.386;2022-08-19T13:36:15;26.90;96.50
39677;DHT22;27789;50.840;4.386;2022-08-19T13:38:41;27.00;96.50
39677;DHT22;27789;50.840;4.386;2022-08-19T13:41:06;27.10;96.10
39677;DHT22;27789;50.840;4.386;2022-08-19T13:43:32;27.10;96.00
39677;DHT22;27789;50.840;4.386;2022-08-19T13:45:57;27.00;96.10
39677;DHT22;27789;50.840;4.386;2022-08-19T13:48:23;27.10;96.10
39677;DHT22;27789;50.840;4.386;2022-08-19T13:50:50;27.10;95.70
39677;DHT22;27789;50.840;4.386;2022-08-19T13:53:15;27.00;95.90
39677;DHT22;27789;50.840;4.386;2022-08-19T13:55:41;26.80;96.20
39677;DHT22;27789;50.840;4.386;2022-08-19T13:58:08;26.70;96.30
39677;DHT22;27789;50.840;4.386;2022-08-19T14:00:35;26.60;96.60
39677;DHT22;27789;50.840;4.386;2022-08-19T14:03:02;26.50;96.70
39677;DHT22;27789;50.840;4.386;2022-08-19T14:05:28;26.40;96.90
39677;DHT22;27789;50.840;4.386;2022-08-19T14:07:53;26.20;97.10
39677;DHT22;27789;50.840;4.386;2022-08-19T14:10:19;26.10;97.60
39677;DHT22;27789;50.840;4.386;2022-08-19T14:12:46;26.10;97.80
39677;DHT22;27789;50.840;4.386;2022-08-19T14:15:11;26.10;98.50
39677;DHT22;27789;50.840;4.386;2022-08-19T14:17:38;25.70;99.80
39677;DHT22;27789;50.840;4.386;2022-08-19T14:20:04;25.50;99.90
39677;DHT22;27789;50.840;4.386;2022-08-19T14:22:33;25.40;99.90
39677;DHT22;27789;50.840;4.386;2022-08-19T14:24:59;25.40;99.90
39677;DHT22;27789;50.840;4.386;2022-08-19T14:27:24;25.60;99.90
39677;DHT22;27789;50.840;4.386;2022-08-19T14:29:51;25.90;99.90
39677;DHT22;27789;50.840;4.386;2022-08-19T14:32:16;25.90;99.90
39677;DHT22;27789;50.840;4.386;2022-08-19T14:34:42;25.70;99.90
39677;DHT22;27789;50.840;4.386;2022-08-19T14:37:11;25.60;99.90
39677;DHT22;27789;50.840;4.386;2022-08-19T14:39:37;25.50;99.90
39677;DHT22;27789;50.840;4.386;2022-08-19T14:42:06;25.40;99.90
39677;DHT22;27789;50.840;4.386;2022-08-19T14:44:32;25.30;99.90
39677;DHT22;27789;50.840;4.386;2022-08-19T14:46:58;25.10;99.90
39677;DHT22;27789;50.840;4.386;2022-08-19T14:49:24;25.00;99.90
39677;DHT22;27789;50.840;4.386;2022-08-19T14:51:50;25.00;99.90
39677;DHT22;27789;50.840;4.386;2022-08-19T14:54:15;24.90;99.90
39677;DHT22;27789;50.840;4.386;2022-08-19T14:56:41;24.90;99.90
39677;DHT22;27789;50.840;4.386;2022-08-19T14:59:06;25.00;99.90
39677;DHT22;27789;50.840;4.386;2022-08-19T15:01:32;25.10;99.90
39677;DHT22;27789;50.840;4.386;2022-08-19T15:03:57;25.20;99.90
39677;DHT22;27789;50.840;4.386;2022-08-19T15:06:23;25.20;99.90
39677;DHT22;27789;50.840;4.386;2022-08-19T15:08:49;25.40;99.90
39677;DHT22;27789;50.840;4.386;2022-08-19T15:11:18;25.50;99.90
39677;DHT22;27789;50.840;4.386;2022-08-19T15:13:46;25.70;99.90
39677;DHT22;27789;50.840;4.386;2022-08-19T15:16:11;25.70;99.90
39677;DHT22;27789;50.840;4.386;2022-08-19T15:18:37;25.80;99.90
39677;DHT22;27789;50.840;4.386;2022-08-19T15:21:03;26.00;99.90
39677;DHT22;27789;50.840;4.386;2022-08-19T15:23:28;26.00;99.90
39677;DHT22;27789;50.840;4.386;2022-08-19T15:25:54;26.10;99.90
39677;DHT22;27789;50.840;4.386;2022-08-19T15:28:24;26.20;99.90
39677;DHT22;27789;50.840;4.386;2022-08-19T15:30:49;26.00;99.90
39677;DHT22;27789;50.840;4.386;2022-08-19T15:33:15;26.10;99.90
39677;DHT22;27789;50.840;4.386;2022-08-19T15:35:42;25.90;99.90
39677;DHT22;27789;50.840;4.386;2022-08-19T15:38:08;25.90;99.90
39677;DHT22;27789;50.840;4.386;2022-08-19T15:40:34;25.90;99.90
39677;DHT22;27789;50.840;4.386;2022-08-19T15:42:59;25.90;99.90